Disney Wonder — C6QM8 — position and weather

sailwx.info

Track history (hours):
 
Tides and Currents Weather Stations Pressure Air Temp Water Temp Dewpoint Dewpoint Depression Visibility Wind Speed Wind Dir Waves Ship Positions

Disney Wonder

Last reported at 2019-Jan-24 02:00 UTC. Time now 2019-Jan-24 07:12 UTC.
Position N 13°00' W 068°42'.

Length 301 m; draft 8.2 m.

Type: Passenger vessel. MMSI: 308457000.

Wind from 340 at 22 knots

Barometer 1019.4 mb
Air temperature 26.0 ° C
Visibility: greater than 5.4 NM
Dewpoint 23.1 ° C

Date/timePositionNaut miles runAvg speedWind from/ knotsBaromVisibWave heightAir tempDewpointWater temp
2019-Jan-24 02:00N 13°00' W 068°42'41715.0 340 / 221019.4 5.4 26.023.1
2019-Jan-22 22:13N 17°08' W 062°55'9 0.8
2019-Jan-22 10:04N 17°18' W 062°55'1 8.8
2019-Jan-22 09:59N 17°18' W 062°56'14 8.4
2019-Jan-22 08:21N 17°28' W 063°06'4 8.5
2019-Jan-22 07:55N 17°32' W 063°07'4 8.6
2019-Jan-22 07:29N 17°35' W 063°07'6 8.7
2019-Jan-22 06:47N 17°41' W 063°08'3 9.0
2019-Jan-22 06:29N 17°44' W 063°09'7 9.0
2019-Jan-22 05:42N 17°49' W 063°14'2 9.0
2019-Jan-22 05:29N 17°51' W 063°15'5 8.5
2019-Jan-22 04:55N 17°54' W 063°19'5 8.7
2019-Jan-22 04:21N 17°56' W 063°24'3 8.8
2019-Jan-22 03:59N 17°57' W 063°27'10 9.1
2019-Jan-22 02:53N 18°00' W 063°37'5313.8
2019-Jan-21 23:03N 18°19' W 064°29'116.3
2019-Jan-21 23:00N 18°20' W 064°29'611.5
2019-Jan-21 22:30N 18°24' W 064°34'3 0.2
2019-Jan-21 10:43N 18°25' W 064°36'1 6.5
2019-Jan-21 10:30N 18°24' W 064°35'4 7.1
2019-Jan-21 10:00N 18°22' W 064°32'22 3.1
2019-Jan-21 03:00N 18°06' W 064°48'34 1.4 230 / 201020.410.8 24.722.2
2019-Jan-20 03:00N 18°24' W 065°18'10015.7 040 / 201020.410.8 25.023.5
2019-Jan-19 20:40N 17°54' W 063°38'617.9
2019-Jan-19 20:21N 17°52' W 063°33'717.8
2019-Jan-19 19:57N 17°49' W 063°26'918.2
2019-Jan-19 19:26N 17°46' W 063°17'1431.4
2019-Jan-19 19:00N 17°36' W 063°06'7377.9 090 / 221019.427.0 25.022.022.0
2019-Jan-19 18:58N 17°42' W 063°09'917.5
2019-Jan-19 18:27N 17°33' W 063°07'2517.4
2019-Jan-19 17:02N 17°11' W 062°56'717.8
2019-Jan-19 16:37N 17°04' W 062°52'317.6
2019-Jan-19 16:26N 17°01' W 062°51'15817.8
2019-Jan-19 07:33N 14°43' W 061°32'917.8
2019-Jan-19 07:03N 14°35' W 061°28'518.1
2019-Jan-19 06:48N 14°31' W 061°26'2016.8
2019-Jan-19 05:38N 14°14' W 061°14'217.5
2019-Jan-19 05:30N 14°14' W 061°12'917.8
2019-Jan-19 05:00N 14°14' W 061°03'917.9
2019-Jan-19 04:30N 14°14' W 060°54'918.0
2019-Jan-19 03:59N 14°14' W 060°44'2019.9
2019-Jan-19 03:00N 14°00' W 060°30'21 0.8 090 / 201018.427.0 25.0
2019-Jan-18 00:38N 14°14' W 060°46'1 8.8
2019-Jan-18 00:29N 14°14' W 060°47'4 8.8
2019-Jan-18 00:00N 14°14' W 060°51'4 8.6
2019-Jan-17 23:30N 14°14' W 060°56'4 8.2
2019-Jan-17 23:00N 14°13' W 060°60'4 8.6
2019-Jan-17 22:30N 14°09' W 061°02'4 7.8
2019-Jan-17 22:00N 14°06' W 061°00'345.6 100 / 181018.410.8 26.0 26.0
2019-Jan-17 21:55N 14°05' W 061°03'3 0.3
2019-Jan-17 11:11N 14°02' W 061°01'314.4
2019-Jan-17 10:57N 14°03' W 061°05'917.1
2019-Jan-17 10:27N 14°08' W 061°12'817.1
2019-Jan-17 10:00N 14°15' W 061°16'1317.3
2019-Jan-17 09:13N 14°27' W 061°22'417.2
2019-Jan-17 09:00N 14°31' W 061°23'917.4
2019-Jan-17 08:29N 14°39' W 061°27'917.5
2019-Jan-17 07:58N 14°47' W 061°30'195 6.3
2019-Jan-16 00:59N 17°46' W 062°50'3 6.4
2019-Jan-16 00:27N 17°48' W 062°53'3 6.4
2019-Jan-16 00:00N 17°50' W 062°56'3 6.6
2019-Jan-15 23:29N 17°52' W 062°58'4 6.5
2019-Jan-15 22:54N 17°54' W 063°02'4 6.4
2019-Jan-15 22:18N 17°57' W 063°05'2 6.6
2019-Jan-15 21:56N 17°59' W 063°06'3 5.5
2019-Jan-15 21:25N 18°00' W 063°03'0 0.7
2019-Jan-15 20:48N 18°01' W 063°03'0 0.0
2019-Jan-15 19:35N 18°01' W 063°03'0 0.0
2019-Jan-15 19:23N 18°01' W 063°03'0 0.0
2019-Jan-15 18:54N 18°01' W 063°03'0 0.0
2019-Jan-15 17:53N 18°01' W 063°03'0 0.0
2019-Jan-15 15:15N 18°01' W 063°03'0 0.0
2019-Jan-15 13:42N 18°01' W 063°03'1 0.4
2019-Jan-15 10:59N 18°00' W 063°04'8 7.5
2019-Jan-15 09:52N 18°01' W 063°13'4 9.1
2019-Jan-15 09:26N 18°01' W 063°17'4 9.3
2019-Jan-15 08:57N 18°01' W 063°21'6 9.5
2019-Jan-15 08:21N 18°02' W 063°27'810.3
2019-Jan-15 07:32N 18°02' W 063°36'  
Track history (hours):
 
Tides and Currents Weather Stations Pressure Air Temp Water Temp Dewpoint Dewpoint Depression Visibility Wind Speed Wind Dir Waves Ship Positions

Disney Wonder

Last reported at 2019-Jan-24 02:00 UTC. Time now 2019-Jan-24 07:12 UTC.
Position N 13°00' W 068°42'.

Length 301 m; draft 8.2 m.

Type: Passenger vessel. MMSI: 308457000.

Wind from 340 at 22 knots

Barometer 1019.4 mb
Air temperature 26.0 ° C
Visibility: greater than 5.4 NM
Dewpoint 23.1 ° C

Date/timePositionNaut miles runAvg speedWind from/ knotsBaromVisibWave heightAir tempDewpointWater temp
2019-Jan-24 02:00N 13°00' W 068°42'41715.0 340 / 221019.4 5.4 26.023.1
2019-Jan-22 22:13N 17°08' W 062°55'9 0.8
2019-Jan-22 10:04N 17°18' W 062°55'1 8.8
2019-Jan-22 09:59N 17°18' W 062°56'14 8.4
2019-Jan-22 08:21N 17°28' W 063°06'4 8.5
2019-Jan-22 07:55N 17°32' W 063°07'4 8.6
2019-Jan-22 07:29N 17°35' W 063°07'6 8.7
2019-Jan-22 06:47N 17°41' W 063°08'3 9.0
2019-Jan-22 06:29N 17°44' W 063°09'7 9.0
2019-Jan-22 05:42N 17°49' W 063°14'2 9.0
2019-Jan-22 05:29N 17°51' W 063°15'5 8.5
2019-Jan-22 04:55N 17°54' W 063°19'5 8.7
2019-Jan-22 04:21N 17°56' W 063°24'3 8.8
2019-Jan-22 03:59N 17°57' W 063°27'10 9.1
2019-Jan-22 02:53N 18°00' W 063°37'5313.8
2019-Jan-21 23:03N 18°19' W 064°29'116.3
2019-Jan-21 23:00N 18°20' W 064°29'611.5
2019-Jan-21 22:30N 18°24' W 064°34'3 0.2
2019-Jan-21 10:43N 18°25' W 064°36'1 6.5
2019-Jan-21 10:30N 18°24' W 064°35'4 7.1
2019-Jan-21 10:00N 18°22' W 064°32'22 3.1
2019-Jan-21 03:00N 18°06' W 064°48'34 1.4 230 / 201020.410.8 24.722.2
2019-Jan-20 03:00N 18°24' W 065°18'10015.7 040 / 201020.410.8 25.023.5
2019-Jan-19 20:40N 17°54' W 063°38'617.9
2019-Jan-19 20:21N 17°52' W 063°33'717.8
2019-Jan-19 19:57N 17°49' W 063°26'918.2
2019-Jan-19 19:26N 17°46' W 063°17'1431.4
2019-Jan-19 19:00N 17°36' W 063°06'7377.9 090 / 221019.427.0 25.022.022.0
2019-Jan-19 18:58N 17°42' W 063°09'917.5
2019-Jan-19 18:27N 17°33' W 063°07'2517.4
2019-Jan-19 17:02N 17°11' W 062°56'717.8
2019-Jan-19 16:37N 17°04' W 062°52'317.6
2019-Jan-19 16:26N 17°01' W 062°51'15817.8
2019-Jan-19 07:33N 14°43' W 061°32'917.8
2019-Jan-19 07:03N 14°35' W 061°28'518.1
2019-Jan-19 06:48N 14°31' W 061°26'2016.8
2019-Jan-19 05:38N 14°14' W 061°14'217.5
2019-Jan-19 05:30N 14°14' W 061°12'917.8
2019-Jan-19 05:00N 14°14' W 061°03'917.9
2019-Jan-19 04:30N 14°14' W 060°54'918.0
2019-Jan-19 03:59N 14°14' W 060°44'2019.9
2019-Jan-19 03:00N 14°00' W 060°30'21 0.8 090 / 201018.427.0 25.0
2019-Jan-18 00:38N 14°14' W 060°46'1 8.8
2019-Jan-18 00:29N 14°14' W 060°47'4 8.8
2019-Jan-18 00:00N 14°14' W 060°51'4 8.6
2019-Jan-17 23:30N 14°14' W 060°56'4 8.2
2019-Jan-17 23:00N 14°13' W 060°60'4 8.6
2019-Jan-17 22:30N 14°09' W 061°02'4 7.8
2019-Jan-17 22:00N 14°06' W 061°00'345.6 100 / 181018.410.8 26.0 26.0
2019-Jan-17 21:55N 14°05' W 061°03'3 0.3
2019-Jan-17 11:11N 14°02' W 061°01'314.4
2019-Jan-17 10:57N 14°03' W 061°05'917.1
2019-Jan-17 10:27N 14°08' W 061°12'817.1
2019-Jan-17 10:00N 14°15' W 061°16'1317.3
2019-Jan-17 09:13N 14°27' W 061°22'417.2
2019-Jan-17 09:00N 14°31' W 061°23'917.4
2019-Jan-17 08:29N 14°39' W 061°27'917.5
2019-Jan-17 07:58N 14°47' W 061°30'195 6.3
2019-Jan-16 00:59N 17°46' W 062°50'3 6.4
2019-Jan-16 00:27N 17°48' W 062°53'3 6.4
2019-Jan-16 00:00N 17°50' W 062°56'3 6.6
2019-Jan-15 23:29N 17°52' W 062°58'4 6.5
2019-Jan-15 22:54N 17°54' W 063°02'4 6.4
2019-Jan-15 22:18N 17°57' W 063°05'2 6.6
2019-Jan-15 21:56N 17°59' W 063°06'3 5.5
2019-Jan-15 21:25N 18°00' W 063°03'0 0.7
2019-Jan-15 20:48N 18°01' W 063°03'0 0.0
2019-Jan-15 19:35N 18°01' W 063°03'0 0.0
2019-Jan-15 19:23N 18°01' W 063°03'0 0.0
2019-Jan-15 18:54N 18°01' W 063°03'0 0.0
2019-Jan-15 17:53N 18°01' W 063°03'0 0.0
2019-Jan-15 15:15N 18°01' W 063°03'0 0.0
2019-Jan-15 13:42N 18°01' W 063°03'1 0.4
2019-Jan-15 10:59N 18°00' W 063°04'8 7.5
2019-Jan-15 09:52N 18°01' W 063°13'4 9.1
2019-Jan-15 09:26N 18°01' W 063°17'4 9.3
2019-Jan-15 08:57N 18°01' W 063°21'6 9.5
2019-Jan-15 08:21N 18°02' W 063°27'810.3
2019-Jan-15 07:32N 18°02' W 063°36'  

Dump ship's entire track history